Dogwood Terrace, Louisiana
Current Conditions -  °F | °C
As of 8:58 AM on Saturday 20 Dec 2014 (Local Time) from KPOE Reporting Station
Haze Haze  
Wind Chill: 42°   Ceiling: 400
Heat Index: 46°   Visibility: 5mi
Dew Point: 45°   Wind: 9mph
Humidity: 97%   Direction: 30°NNE
Pressure: 30.2"   Gusts: NA
Location:  30.9864°N, 93.2144°W
Report Text: KPOE 201458Z AUTO 03008KT 5SM BR OVC004 08/07 A3020 RMK AO2 SLP230 T00790074 52018
Loading
Personal Weather Stations






























Interactive Weather Map New forecast layout! Learn more

10-Day Weather Forecast

Advertisements
Track Severe Weather on mobile